Time;durP1;ratioP1;P1;durP2;ratioP2;P2;SDS_P1;SDS_P2;PMS_P1;PMS_P2;Temp;Humidity;BMP_temperature;BMP_pressure;BME280_temperature;BME280_humidity;BME280_pressure;Samples;Min_cycle;Max_cycle;Signal;HPM_P1;HPM_P2
2024/01/29 00:02:23;;;;;;;8.10;4.13;;;4.40;67.60;;;;;;5044369;28;20045;-70
2024/01/29 00:04:48;;;;;;;7.70;3.80;;;4.40;67.80;;;;;;5049511;28;20070;-71
2024/01/29 00:07:14;;;;;;;8.30;4.43;;;4.30;68.00;;;;;;5051884;28;20176;-70
2024/01/29 00:09:41;;;;;;;7.13;4.20;;;4.20;68.20;;;;;;5047675;28;20044;-70
2024/01/29 00:12:07;;;;;;;6.23;4.03;;;4.20;68.20;;;;;;5044638;28;20056;-71
2024/01/29 00:14:32;;;;;;;6.73;3.83;;;4.10;68.30;;;;;;5039296;28;20636;-70
2024/01/29 00:16:58;;;;;;;5.50;3.83;;;4.10;68.40;;;;;;5041127;28;20504;-72
2024/01/29 00:19:24;;;;;;;9.93;3.90;;;4.00;68.50;;;;;;5014877;28;20759;-71
2024/01/29 00:21:50;;;;;;;8.23;3.47;;;4.00;68.50;;;;;;5029229;28;20051;-70
2024/01/29 00:24:16;;;;;;;9.50;4.03;;;4.10;68.50;;;;;;5008547;28;20517;-70
2024/01/29 00:26:41;;;;;;;7.47;3.90;;;4.00;68.70;;;;;;5024730;28;20141;-70
2024/01/29 00:29:07;;;;;;;7.03;3.87;;;4.00;68.70;;;;;;5009708;28;20057;-71
2024/01/29 00:31:33;;;;;;;8.80;3.80;;;4.10;68.60;;;;;;5026112;28;20123;-71
2024/01/29 00:33:59;;;;;;;6.67;3.90;;;4.10;68.70;;;;;;5017811;28;20527;-71
2024/01/29 00:36:24;;;;;;;7.83;4.00;;;4.10;68.70;;;;;;5019306;28;20437;-71
2024/01/29 00:38:50;;;;;;;10.47;3.83;;;4.00;68.80;;;;;;5020481;28;20177;-70
2024/01/29 00:41:16;;;;;;;7.13;3.40;;;4.00;68.90;;;;;;5021217;28;20059;-70
2024/01/29 00:43:41;;;;;;;5.93;3.67;;;4.00;68.80;;;;;;5021840;28;20508;-71
2024/01/29 00:46:07;;;;;;;6.80;3.83;;;4.00;68.90;;;;;;5013188;28;20061;-71
2024/01/29 00:48:33;;;;;;;6.00;3.47;;;4.00;68.90;;;;;;5016873;28;20042;-71
2024/01/29 00:51:01;;;;;;;7.87;4.43;;;4.00;68.90;;;;;;5019703;28;20416;-71
2024/01/29 00:53:26;;;;;;;7.63;4.10;;;3.90;68.90;;;;;;5018755;28;20057;-71
2024/01/29 00:55:53;;;;;;;5.40;3.20;;;4.00;68.90;;;;;;5031056;28;20053;-70
2024/01/29 00:58:20;;;;;;;6.60;4.37;;;4.00;68.90;;;;;;5029102;28;20434;-72
2024/01/29 01:00:47;;;;;;;6.67;4.13;;;4.00;68.90;;;;;;5031407;28;20114;-71
2024/01/29 01:03:13;;;;;;;5.60;3.93;;;3.90;69.00;;;;;;5023614;28;20046;-73
2024/01/29 01:05:40;;;;;;;8.93;3.70;;;4.00;68.90;;;;;;5023789;28;20150;-70
2024/01/29 01:08:05;;;;;;;5.90;3.90;;;3.90;69.00;;;;;;5030602;28;20063;-71
2024/01/29 01:10:31;;;;;;;6.80;4.40;;;3.90;69.10;;;;;;5031168;28;20058;-70
2024/01/29 01:12:57;;;;;;;8.37;4.30;;;3.80;69.30;;;;;;5040247;28;20068;-71
2024/01/29 01:15:23;;;;;;;7.30;4.43;;;3.80;69.30;;;;;;5035586;28;20133;-70
2024/01/29 01:17:48;;;;;;;7.97;4.30;;;3.80;69.30;;;;;;5037225;28;20045;-70
2024/01/29 01:20:14;;;;;;;8.17;4.40;;;3.70;69.40;;;;;;5033425;28;20489;-72
2024/01/29 01:22:40;;;;;;;8.33;4.27;;;3.70;69.40;;;;;;5044512;28;20052;-70
2024/01/29 01:25:06;;;;;;;6.17;3.93;;;3.70;69.40;;;;;;5043599;28;20361;-70
2024/01/29 01:27:33;;;;;;;8.03;4.53;;;3.70;69.50;;;;;;5037908;28;20046;-72
2024/01/29 01:29:58;;;;;;;7.43;3.80;;;3.60;69.60;;;;;;5038117;28;20048;-73
2024/01/29 01:32:24;;;;;;;5.27;4.23;;;3.60;69.80;;;;;;5035197;28;20060;-71
2024/01/29 01:34:50;;;;;;;8.13;3.73;;;3.50;69.80;;;;;;5041965;28;20588;-71
2024/01/29 01:37:16;;;;;;;7.23;4.40;;;3.50;69.90;;;;;;5040531;28;20083;-70
2024/01/29 01:39:41;;;;;;;6.63;4.60;;;3.50;69.90;;;;;;5040325;28;20412;-71
2024/01/29 01:42:08;;;;;;;7.67;4.50;;;3.50;70.10;;;;;;5030541;28;20057;-70
2024/01/29 01:44:34;;;;;;;10.00;4.60;;;3.50;70.20;;;;;;5036871;28;20124;-71
2024/01/29 01:46:59;;;;;;;7.93;4.70;;;3.50;70.20;;;;;;5035515;28;20095;-71
2024/01/29 01:49:26;;;;;;;5.80;4.43;;;3.50;70.20;;;;;;5025413;28;20041;-70
2024/01/29 01:51:51;;;;;;;7.00;4.40;;;3.40;70.30;;;;;;5041672;28;20136;-71
2024/01/29 01:54:18;;;;;;;8.50;4.43;;;3.30;70.50;;;;;;5040688;28;20495;-70
2024/01/29 01:56:46;;;;;;;7.97;4.70;;;3.30;70.60;;;;;;5034626;28;20052;-71
2024/01/29 01:59:12;;;;;;;6.80;4.23;;;3.30;70.60;;;;;;5037759;28;20049;-71
2024/01/29 02:01:39;;;;;;;6.93;4.50;;;3.20;70.80;;;;;;5032296;28;20048;-72
2024/01/29 02:04:05;;;;;;;9.77;5.00;;;3.20;70.70;;;;;;5031468;28;20215;-71
2024/01/29 02:06:31;;;;;;;9.00;4.50;;;3.20;70.70;;;;;;5039219;28;20430;-71
2024/01/29 02:08:58;;;;;;;6.53;4.33;;;3.20;70.70;;;;;;5041428;28;20048;-72
2024/01/29 02:11:24;;;;;;;7.67;4.37;;;3.10;70.70;;;;;;5030741;28;20052;-70
2024/01/29 02:13:49;;;;;;;9.00;4.87;;;3.10;70.80;;;;;;5032662;28;20386;-71
2024/01/29 02:16:15;;;;;;;6.33;4.33;;;3.10;70.80;;;;;;5032856;28;20060;-71
2024/01/29 02:18:41;;;;;;;6.80;4.47;;;3.10;70.90;;;;;;5033266;28;20694;-71
2024/01/29 02:21:07;;;;;;;9.47;5.27;;;3.10;70.90;;;;;;5041469;28;20558;-73
2024/01/29 02:23:32;;;;;;;6.93;4.70;;;3.10;71.10;;;;;;5030220;28;20041;-71
2024/01/29 02:25:58;;;;;;;6.90;4.77;;;3.00;71.00;;;;;;5038578;28;20128;-71
2024/01/29 02:28:25;;;;;;;7.50;4.80;;;3.00;71.20;;;;;;5029907;28;20056;-71
2024/01/29 02:30:51;;;;;;;9.40;5.33;;;2.90;71.30;;;;;;5036430;28;20045;-70
2024/01/29 02:33:17;;;;;;;7.10;4.80;;;2.90;71.40;;;;;;5033373;28;20087;-70
2024/01/29 02:35:45;;;;;;;7.27;4.93;;;2.90;71.40;;;;;;5038925;28;20601;-70
2024/01/29 02:38:11;;;;;;;7.63;4.60;;;2.90;71.40;;;;;;5040384;28;20045;-70
2024/01/29 02:40:37;;;;;;;10.07;5.60;;;2.90;71.40;;;;;;5041740;28;20419;-70
2024/01/29 02:43:03;;;;;;;7.67;4.60;;;2.80;71.50;;;;;;5027348;28;20099;-70
2024/01/29 02:45:28;;;;;;;7.83;4.83;;;2.80;71.50;;;;;;5040934;28;20519;-70
2024/01/29 02:47:54;;;;;;;9.97;4.97;;;2.80;71.60;;;;;;5034063;28;20053;-71
2024/01/29 02:50:22;;;;;;;7.93;5.13;;;2.80;71.70;;;;;;5039363;28;20045;-70
2024/01/29 02:52:48;;;;;;;9.17;5.00;;;2.70;71.70;;;;;;5078668;28;20041;-71
2024/01/29 02:55:14;;;;;;;10.07;5.20;;;2.70;71.80;;;;;;5037638;28;20049;-70
2024/01/29 02:57:40;;;;;;;9.23;4.97;;;2.70;71.90;;;;;;5031079;28;20049;-70
2024/01/29 03:00:06;;;;;;;11.27;5.27;;;2.70;71.90;;;;;;5027236;28;20132;-71
2024/01/29 03:02:32;;;;;;;8.53;5.40;;;2.70;72.00;;;;;;5037765;28;20429;-70
2024/01/29 03:04:57;;;;;;;9.73;4.63;;;2.70;71.90;;;;;;5035183;28;20052;-70
2024/01/29 03:07:23;;;;;;;7.93;5.00;;;2.80;71.90;;;;;;5039100;28;20041;-70
2024/01/29 03:09:49;;;;;;;7.20;4.90;;;2.80;71.90;;;;;;5039135;28;20053;-71
2024/01/29 03:12:15;;;;;;;8.37;5.03;;;2.80;71.80;;;;;;5033205;28;20049;-70
2024/01/29 03:14:41;;;;;;;8.23;5.23;;;2.90;71.80;;;;;;5033527;28;20515;-71
2024/01/29 03:17:07;;;;;;;10.70;5.03;;;2.90;71.80;;;;;;5032321;28;20048;-71
2024/01/29 03:19:33;;;;;;;8.40;4.90;;;2.90;71.80;;;;;;5040106;28;20053;-70
2024/01/29 03:21:59;;;;;;;9.83;5.00;;;3.00;71.90;;;;;;5042952;28;20063;-71
2024/01/29 03:24:24;;;;;;;10.80;5.60;;;3.00;71.70;;;;;;5016112;28;20056;-71
2024/01/29 03:26:50;;;;;;;8.50;5.20;;;3.10;71.60;;;;;;5034513;28;20079;-71
2024/01/29 03:29:16;;;;;;;8.97;5.00;;;3.10;71.50;;;;;;5033146;28;20057;-70
2024/01/29 03:31:41;;;;;;;8.90;5.03;;;3.10;71.50;;;;;;5040912;28;20049;-71
2024/01/29 03:34:07;;;;;;;7.43;5.00;;;3.10;71.60;;;;;;5035377;28;20077;-71
2024/01/29 03:36:33;;;;;;;7.53;5.07;;;3.10;71.60;;;;;;5039932;28;20049;-70
2024/01/29 03:38:58;;;;;;;7.63;5.20;;;3.00;71.60;;;;;;5035909;28;20099;-70
2024/01/29 03:41:24;;;;;;;8.73;5.17;;;3.00;71.70;;;;;;5032539;28;20103;-71
2024/01/29 03:43:49;;;;;;;9.30;5.30;;;3.00;71.80;;;;;;5033678;28;20049;-70
2024/01/29 03:46:15;;;;;;;8.77;5.07;;;2.90;71.90;;;;;;5031432;28;20045;-71
2024/01/29 03:48:41;;;;;;;9.27;5.40;;;2.90;72.00;;;;;;5033315;28;20516;-70
2024/01/29 03:51:07;;;;;;;9.07;5.10;;;2.80;72.20;;;;;;5033231;28;20053;-73
2024/01/29 03:53:32;;;;;;;10.20;5.47;;;2.80;72.30;;;;;;5034373;28;20049;-70
2024/01/29 03:55:58;;;;;;;11.43;5.53;;;2.80;72.30;;;;;;5029283;28;20492;-70
2024/01/29 03:58:24;;;;;;;7.73;5.43;;;2.80;72.30;;;;;;5038041;28;20770;-71
2024/01/29 04:00:49;;;;;;;16.67;5.70;;;2.80;72.30;;;;;;5037905;28;20416;-73
2024/01/29 04:03:15;;;;;;;9.97;5.47;;;2.80;72.30;;;;;;5036798;28;20436;-70
2024/01/29 04:05:44;;;;;;;10.60;5.70;;;2.70;72.50;;;;;;5033896;28;20049;-70
2024/01/29 04:08:09;;;;;;;9.00;5.40;;;2.70;72.50;;;;;;5035011;28;20057;-70
2024/01/29 04:10:35;;;;;;;10.70;6.70;;;2.50;72.80;;;;;;5028761;28;20045;-70
2024/01/29 04:13:01;;;;;;;9.60;5.93;;;2.50;72.90;;;;;;5035779;28;20052;-71
2024/01/29 04:15:27;;;;;;;10.00;7.00;;;2.50;73.00;;;;;;5024387;28;20444;-70
2024/01/29 04:17:52;;;;;;;11.87;6.27;;;2.50;73.10;;;;;;5033076;28;20126;-71
2024/01/29 04:20:18;;;;;;;10.23;6.33;;;2.40;73.20;;;;;;5030454;28;20053;-71
2024/01/29 04:22:44;;;;;;;10.47;6.20;;;2.40;73.30;;;;;;5030314;28;20512;-70
2024/01/29 04:25:09;;;;;;;9.13;6.00;;;2.30;73.30;;;;;;5032517;28;20060;-70
2024/01/29 04:27:35;;;;;;;9.13;6.33;;;2.30;73.40;;;;;;5027810;28;20049;-70
2024/01/29 04:30:02;;;;;;;10.53;6.60;;;2.30;73.50;;;;;;5027973;28;20041;-71
2024/01/29 04:32:28;;;;;;;8.70;6.43;;;2.30;73.40;;;;;;5014668;28;20125;-70
2024/01/29 04:34:54;;;;;;;11.47;6.43;;;2.30;73.50;;;;;;5032896;28;20111;-70
2024/01/29 04:37:19;;;;;;;10.53;6.43;;;2.30;73.70;;;;;;5037807;28;20060;-72
2024/01/29 04:39:45;;;;;;;10.97;6.50;;;2.30;73.80;;;;;;5036768;28;20490;-70
2024/01/29 04:42:12;;;;;;;11.53;6.47;;;2.30;73.90;;;;;;5026809;28;20057;-71
2024/01/29 04:44:38;;;;;;;9.27;6.33;;;2.30;74.00;;;;;;5033851;28;20144;-71
2024/01/29 04:47:04;;;;;;;12.33;6.40;;;2.30;74.00;;;;;;5034116;28;20132;-70
2024/01/29 04:49:29;;;;;;;9.30;5.90;;;2.30;74.00;;;;;;5044435;28;20045;-70
2024/01/29 04:51:55;;;;;;;9.80;6.03;;;2.40;73.90;;;;;;5055232;28;20053;-70
2024/01/29 04:54:21;;;;;;;10.33;5.90;;;2.40;73.90;;;;;;5048538;28;20190;-71
2024/01/29 04:56:46;;;;;;;12.93;6.07;;;2.50;73.80;;;;;;5050446;28;20053;-70
2024/01/29 04:59:12;;;;;;;11.37;6.03;;;2.50;73.80;;;;;;5049066;28;20075;-70
2024/01/29 05:01:38;;;;;;;12.60;6.20;;;2.50;73.80;;;;;;5034899;28;20066;-71
2024/01/29 05:04:04;;;;;;;8.77;5.87;;;2.50;73.90;;;;;;5034282;28;20366;-70
2024/01/29 05:06:30;;;;;;;8.27;6.10;;;2.50;74.00;;;;;;5042837;28;20565;-70
2024/01/29 05:08:55;;;;;;;11.87;6.03;;;2.50;73.90;;;;;;5041697;28;20052;-71
2024/01/29 05:11:21;;;;;;;10.70;7.20;;;2.50;73.90;;;;;;5036315;28;20139;-70
2024/01/29 05:13:47;;;;;;;52.77;26.40;;;2.50;73.90;;;;;;5031907;28;20053;-70
2024/01/29 05:16:15;;;;;;;19.77;10.13;;;2.50;74.00;;;;;;5041154;28;20515;-71
2024/01/29 05:18:41;;;;;;;9.37;6.07;;;2.60;74.00;;;;;;5036151;28;20461;-71
2024/01/29 05:21:07;;;;;;;11.17;6.43;;;2.60;74.10;;;;;;5043150;28;20087;-72
2024/01/29 05:23:34;;;;;;;9.43;6.30;;;2.50;74.10;;;;;;5049154;28;20120;-71
2024/01/29 05:25:59;;;;;;;11.40;7.17;;;2.60;74.10;;;;;;5041557;28;20050;-71
2024/01/29 05:28:25;;;;;;;13.97;6.60;;;2.50;74.10;;;;;;5026908;28;20108;-71
2024/01/29 05:30:51;;;;;;;13.93;6.67;;;2.50;74.10;;;;;;5019254;28;20053;-71
2024/01/29 05:33:17;;;;;;;10.13;6.83;;;2.50;74.30;;;;;;5016400;28;20038;-71
2024/01/29 05:35:43;;;;;;;13.07;6.90;;;2.50;74.40;;;;;;5016128;28;20169;-72
2024/01/29 05:38:08;;;;;;;14.00;7.10;;;2.50;74.50;;;;;;5029956;28;20079;-71
2024/01/29 05:40:34;;;;;;;12.07;6.63;;;2.50;74.50;;;;;;5042975;28;20041;-70
2024/01/29 05:43:00;;;;;;;12.50;7.17;;;2.60;74.50;;;;;;5037197;28;20079;-71
2024/01/29 05:45:26;;;;;;;12.80;7.33;;;2.50;74.40;;;;;;5032823;28;20166;-71
2024/01/29 05:47:51;;;;;;;9.10;6.70;;;2.50;74.50;;;;;;5031794;28;20052;-70
2024/01/29 05:50:17;;;;;;;11.63;7.30;;;2.50;74.50;;;;;;5000956;28;20442;-73
2024/01/29 05:52:43;;;;;;;10.53;7.10;;;2.50;74.60;;;;;;5027645;28;20460;-70
2024/01/29 05:55:09;;;;;;;11.50;7.43;;;2.50;74.70;;;;;;5029206;28;20500;-72
2024/01/29 05:57:35;;;;;;;11.73;7.73;;;2.50;74.80;;;;;;5036629;28;20061;-71
2024/01/29 06:00:03;;;;;;;10.93;7.07;;;2.50;74.90;;;;;;5029701;28;20138;-71
2024/01/29 06:02:29;;;;;;;13.87;7.37;;;2.50;74.90;;;;;;5040510;28;20548;-70
2024/01/29 06:04:55;;;;;;;13.03;7.40;;;2.50;75.00;;;;;;5030331;28;20049;-71
2024/01/29 06:07:21;;;;;;;12.03;7.93;;;2.50;75.00;;;;;;5046248;28;20079;-70
2024/01/29 06:09:46;;;;;;;10.70;7.10;;;2.70;75.00;;;;;;5045013;28;20053;-71
2024/01/29 06:12:12;;;;;;;11.60;8.20;;;2.60;75.00;;;;;;5047434;28;20041;-70
2024/01/29 06:14:38;;;;;;;13.57;7.50;;;2.70;75.10;;;;;;5047138;28;20401;-71
2024/01/29 06:17:04;;;;;;;11.03;8.10;;;2.70;75.00;;;;;;5047320;28;20044;-70
2024/01/29 06:19:30;;;;;;;10.27;7.17;;;2.70;75.10;;;;;;5068504;28;20069;-71
2024/01/29 06:21:55;;;;;;;12.43;7.87;;;2.60;75.20;;;;;;5037172;28;20140;-71
2024/01/29 06:24:21;;;;;;;11.73;7.83;;;2.70;75.30;;;;;;5033119;28;20049;-71
2024/01/29 06:26:47;;;;;;;12.27;7.60;;;2.70;75.30;;;;;;4999211;28;20077;-73
2024/01/29 06:29:12;;;;;;;12.10;7.67;;;2.70;75.40;;;;;;5028461;28;21146;-71
2024/01/29 06:31:39;;;;;;;10.83;7.57;;;2.60;75.40;;;;;;5036888;28;20049;-71
2024/01/29 06:34:05;;;;;;;10.37;7.17;;;2.70;75.40;;;;;;5026294;28;20049;-70
2024/01/29 06:36:31;;;;;;;14.50;7.43;;;2.70;75.50;;;;;;5032055;28;20573;-71
2024/01/29 06:38:58;;;;;;;12.87;7.80;;;2.80;75.40;;;;;;5034047;28;20049;-71
2024/01/29 06:41:25;;;;;;;14.27;7.83;;;2.80;75.40;;;;;;5033974;28;20041;-70
2024/01/29 06:43:52;;;;;;;12.10;8.47;;;2.80;75.30;;;;;;5033066;28;20057;-72
2024/01/29 06:46:18;;;;;;;12.27;7.60;;;2.70;75.40;;;;;;5038952;28;20513;-70
2024/01/29 06:48:44;;;;;;;13.40;8.20;;;2.70;75.50;;;;;;5034787;28;20059;-72
2024/01/29 06:51:10;;;;;;;12.93;8.43;;;2.70;75.50;;;;;;5026003;28;20348;-70
2024/01/29 06:53:36;;;;;;;12.70;7.90;;;2.70;75.50;;;;;;5028620;28;20063;-70
2024/01/29 06:56:04;;;;;;;12.63;7.77;;;2.60;75.60;;;;;;5028439;28;20057;-71
2024/01/29 06:58:31;;;;;;;15.23;9.23;;;2.60;75.60;;;;;;5030050;28;20037;-71
2024/01/29 07:01:00;;;;;;;12.00;8.10;;;2.50;75.70;;;;;;5032522;28;20124;-70
2024/01/29 07:03:26;;;;;;;12.10;8.40;;;2.50;75.80;;;;;;5035842;28;20060;-71
2024/01/29 07:05:52;;;;;;;11.43;7.83;;;2.50;75.80;;;;;;5024625;28;20053;-71
2024/01/29 07:08:18;;;;;;;15.63;8.40;;;2.50;75.90;;;;;;5026003;28;20053;-70
2024/01/29 07:10:44;;;;;;;11.90;8.03;;;2.50;75.90;;;;;;5029858;28;20064;-71
2024/01/29 07:13:10;;;;;;;12.83;8.63;;;2.50;75.90;;;;;;5026833;28;20068;-71
2024/01/29 07:15:36;;;;;;;13.03;9.03;;;2.60;76.00;;;;;;5033014;28;20520;-71
2024/01/29 07:18:02;;;;;;;15.20;11.00;;;2.60;76.00;;;;;;5032741;28;20127;-71
2024/01/29 07:20:29;;;;;;;19.33;13.50;;;2.60;76.00;;;;;;5024711;28;20456;-71
2024/01/29 07:22:55;;;;;;;15.40;9.30;;;2.70;76.10;;;;;;5026677;28;20128;-70
2024/01/29 07:25:22;;;;;;;13.17;9.07;;;2.70;76.10;;;;;;5054273;28;20051;-70
2024/01/29 07:27:47;;;;;;;14.07;9.30;;;2.70;76.20;;;;;;5053547;28;20056;-71
2024/01/29 07:30:14;;;;;;;15.90;8.77;;;2.70;76.20;;;;;;5040550;28;20049;-70
2024/01/29 07:32:40;;;;;;;17.07;9.60;;;2.70;76.20;;;;;;5044296;28;20136;-70
2024/01/29 07:35:07;;;;;;;12.90;9.23;;;2.70;76.30;;;;;;5047127;28;20087;-71
2024/01/29 07:37:32;;;;;;;12.00;8.63;;;2.70;76.40;;;;;;5048374;28;20127;-71
2024/01/29 07:39:58;;;;;;;11.77;8.53;;;2.70;76.30;;;;;;5049872;28;20059;-71
2024/01/29 07:42:24;;;;;;;13.60;9.07;;;2.70;76.40;;;;;;5053641;28;20173;-71
2024/01/29 07:44:51;;;;;;;14.60;9.23;;;2.80;76.50;;;;;;5047886;28;20575;-72
2024/01/29 07:47:17;;;;;;;15.17;9.10;;;2.80;76.40;;;;;;5057885;28;20113;-71
2024/01/29 07:49:43;;;;;;;14.50;9.20;;;2.80;76.40;;;;;;5057976;28;20128;-70
2024/01/29 07:52:09;;;;;;;12.23;9.13;;;2.80;76.40;;;;;;5061178;28;20123;-71
2024/01/29 07:54:35;;;;;;;13.77;8.70;;;2.90;76.50;;;;;;5048700;28;20052;-71
2024/01/29 07:57:02;;;;;;;14.90;9.20;;;2.80;76.50;;;;;;5049684;28;20414;-71
2024/01/29 07:59:29;;;;;;;13.43;9.27;;;2.80;76.60;;;;;;5017491;28;20052;-73
2024/01/29 08:01:55;;;;;;;15.17;9.30;;;2.80;76.60;;;;;;5036273;28;20045;-71
2024/01/29 08:04:20;;;;;;;16.17;9.07;;;2.80;76.50;;;;;;5045199;28;20041;-72
2024/01/29 08:06:46;;;;;;;13.60;9.33;;;2.90;76.60;;;;;;5034826;28;20111;-74
2024/01/29 08:09:12;;;;;;;14.03;9.03;;;2.90;76.60;;;;;;5033389;28;20187;-70
2024/01/29 08:11:38;;;;;;;15.40;9.13;;;3.00;76.60;;;;;;5040144;28;20033;-71
2024/01/29 08:14:04;;;;;;;16.57;9.47;;;3.00;76.70;;;;;;5042424;28;20045;-70
2024/01/29 08:16:30;;;;;;;13.27;9.83;;;3.00;76.70;;;;;;5038991;28;20041;-71
2024/01/29 08:18:57;;;;;;;15.67;10.50;;;3.10;76.80;;;;;;5038411;28;20408;-73
2024/01/29 08:21:22;;;;;;;15.40;10.33;;;3.20;76.70;;;;;;5040232;28;20052;-73
2024/01/29 08:23:48;;;;;;;15.93;10.20;;;3.30;76.60;;;;;;5044319;28;20052;-71
2024/01/29 08:26:14;;;;;;;17.00;10.17;;;3.50;76.40;;;;;;5042848;28;20195;-72
2024/01/29 08:28:39;;;;;;;17.17;9.87;;;3.50;76.30;;;;;;5047059;28;20037;-70
2024/01/29 08:31:06;;;;;;;14.57;10.10;;;3.50;76.30;;;;;;5034935;28;20060;-70
2024/01/29 08:33:32;;;;;;;15.50;10.43;;;3.50;76.30;;;;;;5030778;28;20468;-72
2024/01/29 08:35:58;;;;;;;12.97;9.70;;;3.50;76.40;;;;;;5028304;28;20376;-71
2024/01/29 08:38:24;;;;;;;14.30;9.93;;;3.50;76.40;;;;;;5030538;28;20044;-72
2024/01/29 08:40:50;;;;;;;16.20;9.93;;;3.60;76.40;;;;;;5028951;28;20053;-72
2024/01/29 08:43:16;;;;;;;16.63;10.80;;;3.60;76.40;;;;;;5027460;28;20048;-72
2024/01/29 08:45:42;;;;;;;17.60;10.20;;;3.60;76.50;;;;;;5027577;28;20527;-72
2024/01/29 08:48:08;;;;;;;14.80;10.10;;;3.60;76.50;;;;;;5027430;28;21431;-72
2024/01/29 08:50:34;;;;;;;17.17;10.20;;;3.70;76.50;;;;;;5027574;28;20263;-71
2024/01/29 08:53:02;;;;;;;14.60;9.53;;;3.70;76.50;;;;;;5011193;28;20117;-71
2024/01/29 08:55:30;;;;;;;13.93;9.57;;;3.70;76.40;;;;;;5027525;28;20045;-71
2024/01/29 08:57:55;;;;;;;15.63;10.43;;;3.70;76.30;;;;;;5025545;28;20492;-73
2024/01/29 09:00:21;;;;;;;13.30;10.00;;;3.80;76.40;;;;;;5025617;28;20041;-71
2024/01/29 09:02:49;;;;;;;15.90;10.37;;;3.80;76.40;;;;;;5010254;28;20055;-71
2024/01/29 09:05:16;;;;;;;18.00;11.03;;;3.80;76.30;;;;;;5028397;28;20061;-73
2024/01/29 09:07:41;;;;;;;17.57;10.33;;;3.90;76.30;;;;;;5025877;28;20056;-73
2024/01/29 09:10:08;;;;;;;16.03;10.03;;;3.90;76.30;;;;;;5027905;28;20076;-73
2024/01/29 09:12:34;;;;;;;14.53;10.73;;;3.90;76.30;;;;;;5026807;28;20045;-72
2024/01/29 09:15:02;;;;;;;16.13;10.33;;;4.00;76.20;;;;;;5026616;28;20071;-72
2024/01/29 09:17:28;;;;;;;14.20;10.63;;;4.00;76.20;;;;;;5017606;28;20064;-73
2024/01/29 09:19:54;;;;;;;17.53;10.97;;;4.10;76.30;;;;;;5030485;28;20352;-71
2024/01/29 09:22:19;;;;;;;14.57;10.77;;;4.20;76.20;;;;;;5007540;28;20064;-72
2024/01/29 09:24:46;;;;;;;15.90;11.27;;;4.20;76.20;;;;;;5006432;28;20087;-71
2024/01/29 09:27:12;;;;;;;16.60;11.43;;;4.20;76.20;;;;;;5007974;28;20064;-71
2024/01/29 09:29:38;;;;;;;15.47;10.67;;;4.30;76.20;;;;;;5007196;28;20057;-73
2024/01/29 09:32:04;;;;;;;16.17;10.47;;;4.30;76.20;;;;;;5007808;28;20045;-71
2024/01/29 09:34:30;;;;;;;17.23;10.80;;;4.40;76.20;;;;;;5009478;28;20136;-73
2024/01/29 09:36:56;;;;;;;16.03;10.93;;;4.40;76.20;;;;;;5007729;28;20136;-71
2024/01/29 09:39:25;;;;;;;15.97;11.10;;;4.40;76.20;;;;;;5007081;28;20530;-72
2024/01/29 09:41:52;;;;;;;14.90;11.40;;;4.50;76.30;;;;;;5004990;28;20061;-73
2024/01/29 09:44:17;;;;;;;16.33;11.00;;;4.50;76.30;;;;;;5004141;28;20053;-71
2024/01/29 09:46:46;;;;;;;17.97;11.07;;;4.50;76.20;;;;;;5007133;28;20052;-71
2024/01/29 09:49:12;;;;;;;15.57;11.73;;;4.60;76.20;;;;;;5007167;28;20998;-71
2024/01/29 09:51:39;;;;;;;17.63;10.97;;;4.70;76.10;;;;;;5009018;28;20891;-71
2024/01/29 09:54:05;;;;;;;14.80;10.97;;;4.70;76.20;;;;;;5008368;28;20155;-71
2024/01/29 09:56:31;;;;;;;15.43;11.30;;;4.90;76.00;;;;;;5007415;28;20110;-71
2024/01/29 09:58:57;;;;;;;18.17;12.37;;;5.00;76.00;;;;;;5009169;28;20089;-71
2024/01/29 10:01:23;;;;;;;19.67;11.73;;;5.00;76.00;;;;;;5005970;28;20050;-71
2024/01/29 10:03:49;;;;;;;16.70;11.63;;;5.00;75.80;;;;;;5007862;28;20469;-71
2024/01/29 10:06:15;;;;;;;20.97;12.13;;;5.00;75.90;;;;;;5009887;28;20061;-73
2024/01/29 10:08:42;;;;;;;16.50;11.80;;;5.00;75.90;;;;;;5009048;28;20156;-71
2024/01/29 10:11:08;;;;;;;19.70;13.30;;;5.10;76.00;;;;;;5005864;28;20463;-73
2024/01/29 10:13:37;;;;;;;17.63;12.73;;;5.10;76.10;;;;;;5007341;28;20098;-73
2024/01/29 10:16:02;;;;;;;18.50;12.07;;;5.20;76.20;;;;;;5007192;28;20079;-72
2024/01/29 10:18:30;;;;;;;19.50;12.07;;;5.30;76.20;;;;;;5006477;28;20041;-73
2024/01/29 10:21:06;;;;;;;16.10;12.47;;;5.30;76.20;;;;;;5006641;28;20061;-71
2024/01/29 10:23:32;;;;;;;20.70;13.13;;;5.40;76.10;;;;;;4988347;28;20711;-72
2024/01/29 10:25:59;;;;;;;17.03;12.50;;;5.50;76.20;;;;;;5005587;28;20072;-71
2024/01/29 10:28:29;;;;;;;20.03;13.40;;;5.50;76.30;;;;;;5004254;28;20093;-73
2024/01/29 10:30:56;;;;;;;19.33;12.70;;;5.60;76.40;;;;;;5007250;28;20156;-71
2024/01/29 10:33:24;;;;;;;18.60;13.10;;;5.60;76.50;;;;;;5004779;28;20065;-73
2024/01/29 10:35:50;;;;;;;19.13;14.17;;;5.70;76.50;;;;;;5002585;28;20452;-73
2024/01/29 10:38:24;;;;;;;19.47;12.73;;;5.80;76.50;;;;;;5005152;28;20146;-71
2024/01/29 10:40:50;;;;;;;19.50;12.80;;;5.80;76.70;;;;;;5005973;28;20136;-71
2024/01/29 10:43:20;;;;;;;20.70;13.67;;;5.90;76.60;;;;;;5004521;28;20791;-72
2024/01/29 10:45:49;;;;;;;20.60;14.03;;;5.90;76.50;;;;;;5004023;28;20049;-71
2024/01/29 10:48:23;;;;;;;23.17;14.17;;;5.90;76.50;;;;;;5003571;28;20123;-71
2024/01/29 10:50:50;;;;;;;18.47;14.20;;;5.90;76.50;;;;;;5001733;28;20140;-73
2024/01/29 10:53:17;;;;;;;18.40;13.47;;;6.00;76.70;;;;;;5003986;28;20041;-71
2024/01/29 10:55:44;;;;;;;25.67;15.33;;;6.00;76.80;;;;;;5004116;28;20392;-71
2024/01/29 10:58:15;;;;;;;26.93;17.17;;;6.10;76.80;;;;;;5004038;28;20060;-73
2024/01/29 11:00:43;;;;;;;22.55;12.23;;;6.10;76.80;;;;;;5004366;28;20421;-72
2024/01/29 11:03:11;;;;;;;23.50;15.70;;;6.10;76.90;;;;;;5005018;28;20064;-73
2024/01/29 11:05:39;;;;;;;27.33;16.77;;;6.10;76.90;;;;;;5004803;28;20370;-71
2024/01/29 11:08:09;;;;;;;29.37;17.13;;;6.10;77.10;;;;;;5005009;28;20053;-73
2024/01/29 11:10:35;;;;;;;26.47;16.77;;;6.20;77.40;;;;;;5020259;28;20118;-72
2024/01/29 11:13:04;;;;;;;27.57;15.47;;;6.20;77.40;;;;;;5017298;28;20080;-74
2024/01/29 11:15:31;;;;;;;25.57;16.37;;;6.30;77.20;;;;;;5003012;28;20149;-71
2024/01/29 11:17:58;;;;;;;26.03;15.93;;;6.30;77.20;;;;;;5029995;28;20838;-72
2024/01/29 11:20:24;;;;;;;25.03;15.77;;;6.40;77.20;;;;;;5003937;28;20050;-73
2024/01/29 11:22:51;;;;;;;23.43;15.67;;;6.40;77.00;;;;;;5004808;28;21006;-73
2024/01/29 11:25:18;;;;;;;24.03;15.10;;;6.40;76.90;;;;;;5002367;28;20107;-72
2024/01/29 11:27:45;;;;;;;23.03;14.57;;;6.40;76.70;;;;;;5001908;28;20045;-74
2024/01/29 11:30:23;;;;;;;21.57;14.87;;;6.40;76.70;;;;;;5002294;28;20061;-74
2024/01/29 11:32:50;;;;;;;24.73;15.07;;;6.40;76.70;;;;;;5002654;28;20068;-71
2024/01/29 11:35:24;;;;;;;20.37;15.07;;;6.40;76.60;;;;;;5000931;28;20060;-74
2024/01/29 11:37:50;;;;;;;21.23;15.37;;;6.40;76.60;;;;;;5003105;28;20552;-71
2024/01/29 11:40:38;;;;;;;23.47;14.97;;;6.40;76.70;;;;;;4985840;28;20092;-73
2024/01/29 11:43:09;;;;;;;21.53;15.30;;;6.50;76.70;;;;;;4991843;28;20087;-72
2024/01/29 11:45:36;;;;;;;;;;;6.50;76.70;;;;;;4998530;28;20053;-72
2024/01/29 11:48:02;;;;;;;28.37;17.23;;;6.60;76.70;;;;;;5003618;28;20011;-74
2024/01/29 11:50:28;;;;;;;32.73;17.50;;;6.60;76.80;;;;;;5003494;28;20060;-74
2024/01/29 11:52:54;;;;;;;31.10;17.70;;;6.60;76.90;;;;;;5005121;28;20449;-74
2024/01/29 11:55:21;;;;;;;29.67;18.13;;;6.70;76.90;;;;;;5003124;28;21168;-73
2024/01/29 11:57:47;;;;;;;28.60;17.17;;;6.70;77.10;;;;;;5003635;28;20053;-73
2024/01/29 12:00:19;;;;;;;30.57;17.87;;;6.80;77.10;;;;;;5002066;28;20052;-73
2024/01/29 12:02:48;;;;;;;32.63;18.70;;;6.90;77.20;;;;;;5003857;28;20479;-72
2024/01/29 12:05:18;;;;;;;35.87;19.80;;;6.90;77.50;;;;;;5004227;28;20084;-73
2024/01/29 12:07:47;;;;;;;33.63;20.07;;;6.90;77.90;;;;;;5003265;28;20049;-73
2024/01/29 12:10:17;;;;;;;36.83;19.43;;;7.00;78.20;;;;;;5002555;28;20109;-73
2024/01/29 12:12:43;;;;;;;38.57;20.27;;;6.90;78.80;;;;;;5004155;28;20047;-73
2024/01/29 12:15:11;;;;;;;41.10;20.67;;;6.90;79.40;;;;;;5006081;28;20676;-72
2024/01/29 12:17:40;;;;;;;37.60;20.53;;;6.80;79.50;;;;;;5027543;28;20056;-74
2024/01/29 12:20:10;;;;;;;39.43;20.70;;;6.80;79.60;;;;;;5024535;28;20295;-74
2024/01/29 12:22:37;;;;;;;36.30;20.37;;;6.80;79.70;;;;;;5026635;28;20133;-72
2024/01/29 12:25:03;;;;;;;40.43;20.23;;;6.80;79.70;;;;;;5027173;28;20061;-72
2024/01/29 12:27:29;;;;;;;38.13;19.47;;;6.90;79.90;;;;;;5027391;28;20057;-74
2024/01/29 12:29:57;;;;;;;37.00;19.43;;;6.90;80.00;;;;;;5026526;28;20057;-74
2024/01/29 12:32:22;;;;;;;40.63;19.27;;;6.90;80.10;;;;;;5025819;28;20836;-71
2024/01/29 12:34:50;;;;;;;35.50;19.47;;;7.00;80.30;;;;;;5025279;28;20056;-73
2024/01/29 12:37:22;;;;;;;39.20;19.73;;;7.00;80.10;;;;;;5023923;28;21867;-74
2024/01/29 12:39:55;;;;;;;39.60;19.83;;;7.00;80.20;;;;;;5026178;28;20657;-73
2024/01/29 12:42:22;;;;;;;41.73;20.97;;;7.00;80.30;;;;;;5024019;28;20098;-74
2024/01/29 12:44:50;;;;;;;42.33;20.87;;;6.90;80.40;;;;;;5025822;28;20126;-72